Time;durP1;ratioP1;P1;durP2;ratioP2;P2;SDS_P1;SDS_P2;PMS_P1;PMS_P2;Temp;Humidity;BMP_temperature;BMP_pressure;BME280_temperature;BME280_humidity;BME280_pressure;Samples;Min_cycle;Max_cycle;Signal;HPM_P1;HPM_P2
2021/07/14 00:00:11;;;;;;;40.90;36.73;;;;;;;21.08;nan;98474.59;2097535;28;20563;-72
2021/07/14 00:01:13;;;;;;;40.93;36.97;;;;;;;21.06;nan;98476.13;2096770;28;20230;-72
2021/07/14 00:02:14;;;;;;;40.33;35.60;;;;;;;21.07;nan;98474.97;2096888;28;20448;-72
2021/07/14 00:03:15;;;;;;;41.40;36.97;;;;;;;21.05;nan;98485.44;2097556;28;20527;-72
2021/07/14 00:04:16;;;;;;;40.53;36.57;;;;;;;21.03;nan;98472.25;2096815;28;20448;-72
2021/07/14 00:05:19;;;;;;;40.53;36.47;;;;;;;21.06;nan;98482.34;2096822;28;20252;-72
2021/07/14 00:06:20;;;;;;;42.90;38.43;;;;;;;21.07;nan;98466.84;2097519;28;20444;-72
2021/07/14 00:07:21;;;;;;;43.67;39.03;;;;;;;21.09;nan;98469.94;2097548;28;20535;-72
2021/07/14 00:08:24;;;;;;;41.37;37.43;;;;;;;21.12;nan;98469.19;2096245;28;20459;-72
2021/07/14 00:09:24;;;;;;;41.90;37.97;;;;;;;21.16;nan;98470.75;2096675;28;20552;-72
2021/07/14 00:10:30;;;;;;;42.87;38.50;;;;;;;21.18;nan;98479.28;2097428;28;20455;-72
2021/07/14 00:11:37;;;;;;;39.93;35.67;;;;;;;21.24;nan;98473.50;2097079;28;20228;-72
2021/07/14 00:12:45;;;;;;;42.13;37.60;;;;;;;21.28;nan;98471.59;2096333;28;20989;-72
2021/07/14 00:14:01;;;;;;;41.60;37.53;;;;;;;21.29;nan;98479.38;2089299;28;20774;-72
2021/07/14 00:22:04;;;;;;;39.87;36.07;;;;;;;21.28;nan;98466.94;2097110;28;20783;-72
2021/07/14 00:22:08;;;;;;;41.93;37.83;;;;;;;21.30;nan;98469.31;2096914;28;20498;-72
2021/07/14 00:23:09;;;;;;;44.33;37.70;;;;;;;21.31;nan;98471.63;2097021;28;21001;-72
2021/07/14 00:24:11;;;;;;;40.00;36.03;;;;;;;21.32;nan;98477.84;2096549;28;20488;-72
2021/07/14 00:25:14;;;;;;;40.50;36.20;;;;;;;21.28;nan;98468.88;2096579;28;20452;-72
2021/07/14 00:26:14;;;;;;;40.57;36.27;;;;;;;21.30;nan;98461.94;2096693;28;20798;-71
2021/07/14 00:27:16;;;;;;;39.87;36.03;;;;;;;21.34;nan;98467.38;2096547;28;20477;-72
2021/07/14 00:28:18;;;;;;;44.73;36.30;;;;;;;21.35;nan;98466.22;2088367;28;20261;-72
2021/07/14 00:29:19;;;;;;;39.80;36.10;;;;;;;21.35;nan;98469.69;2096461;28;20440;-72
2021/07/14 00:30:25;;;;;;;40.03;36.10;;;;;;;21.35;nan;98466.97;2080196;28;20458;-72
2021/07/14 00:31:27;;;;;;;41.17;36.83;;;;;;;21.33;nan;98472.03;2088530;28;20475;-72
2021/07/14 00:32:27;;;;;;;40.00;36.17;;;;;;;21.31;nan;98474.34;2096679;28;20473;-72
2021/07/14 00:33:30;;;;;;;41.10;36.97;;;;;;;21.31;nan;98477.06;2096599;28;20457;-72
2021/07/14 00:34:31;;;;;;;41.53;37.30;;;;;;;21.32;nan;98478.59;2096692;28;20650;-72
2021/07/14 00:35:32;;;;;;;40.87;37.00;;;;;;;21.30;nan;98474.72;2097293;28;20603;-72
2021/07/14 00:36:33;;;;;;;42.07;37.67;;;;;;;21.34;nan;98476.28;2097290;28;20233;-72
2021/07/14 00:37:35;;;;;;;40.20;36.47;;;;;;;21.33;nan;98480.16;2096744;28;20528;-72
2021/07/14 00:38:36;;;;;;;41.20;36.83;;;;;;;21.33;nan;98474.72;2087923;28;20223;-72
2021/07/14 00:39:39;;;;;;;41.73;37.50;;;;;;;21.31;nan;98473.56;2088070;28;20450;-72
2021/07/14 00:40:40;;;;;;;40.63;36.77;;;;;;;21.33;nan;98468.53;2096541;28;20233;-72
2021/07/14 00:41:42;;;;;;;40.00;35.77;;;;;;;21.31;nan;98468.13;2097377;28;20449;-72
2021/07/14 00:42:45;;;;;;;41.60;37.47;;;;;;;21.27;nan;98470.81;2097297;28;20723;-72
2021/07/14 00:43:47;;;;;;;41.03;37.20;;;;;;;21.24;nan;98474.28;2097288;28;20440;-72
2021/07/14 00:44:48;;;;;;;40.17;36.00;;;;;;;21.22;nan;98471.19;2097247;28;20452;-72
2021/07/14 00:45:49;;;;;;;39.90;36.20;;;;;;;21.20;nan;98470.78;2097322;28;20447;-72
2021/07/14 00:46:50;;;;;;;39.33;35.47;;;;;;;21.22;nan;98473.88;2096414;28;20752;-72
2021/07/14 00:47:55;;;;;;;43.83;35.37;;;;;;;21.18;nan;98463.00;2096595;28;20942;-72
2021/07/14 00:48:58;;;;;;;40.30;36.33;;;;;;;21.14;nan;98470.38;2096863;28;20455;-72
2021/07/14 00:50:00;;;;;;;39.47;35.77;;;;;;;21.12;nan;98469.19;2097170;28;20452;-72
2021/07/14 00:51:01;;;;;;;39.43;35.53;;;;;;;21.04;nan;98476.50;2097290;28;20512;-72
2021/07/14 00:52:03;;;;;;;40.13;36.37;;;;;;;21.03;nan;98482.31;2096324;28;20448;-72
2021/07/14 00:53:04;;;;;;;41.03;37.07;;;;;;;20.98;nan;98471.81;2096609;28;20660;-72
2021/07/14 00:54:06;;;;;;;40.50;36.53;;;;;;;20.94;nan;98468.28;2096985;28;20490;-72
2021/07/14 00:55:09;;;;;;;40.73;36.57;;;;;;;20.91;nan;98474.50;2095916;28;20862;-72
2021/07/14 00:56:11;;;;;;;40.43;36.37;;;;;;;20.91;nan;98479.91;2096534;28;20909;-72
2021/07/14 00:57:12;;;;;;;39.63;35.83;;;;;;;20.88;nan;98482.22;2096445;28;21477;-72
2021/07/14 00:58:13;;;;;;;41.27;37.37;;;;;;;20.86;nan;98487.25;2096376;28;20883;-72
2021/07/14 00:59:14;;;;;;;41.33;37.00;;;;;;;20.85;nan;98483.00;2097163;28;20221;-72
2021/07/14 01:00:16;;;;;;;41.57;37.57;;;;;;;20.95;nan;98486.94;2097104;28;20451;-72
2021/07/14 01:01:17;;;;;;;42.07;37.73;;;;;;;20.93;nan;98485.72;2096268;28;20276;-72
2021/07/14 01:02:18;;;;;;;40.50;36.27;;;;;;;20.98;nan;98491.59;2096366;28;20444;-72
2021/07/14 01:03:23;;;;;;;40.77;35.93;;;;;;;20.94;nan;98482.66;2097156;28;20218;-72
2021/07/14 01:04:28;;;;;;;39.50;35.83;;;;;;;20.88;nan;98490.38;2096622;28;20453;-72
2021/07/14 01:05:32;;;;;;;40.47;36.50;;;;;;;20.85;nan;98491.13;2096260;28;20893;-72
2021/07/14 01:06:42;;;;;;;38.97;35.30;;;;;;;20.86;nan;98495.41;2096349;28;20456;-72
2021/07/14 01:07:48;;;;;;;38.37;34.60;;;;;;;20.84;nan;98492.25;2096680;28;20445;-72
2021/07/14 01:08:57;;;;;;;39.97;36.07;;;;;;;20.81;nan;98490.31;2097192;28;20494;-72
2021/07/14 01:10:03;;;;;;;37.63;34.23;;;;;;;20.87;nan;98499.66;2096733;28;20444;-72
2021/07/14 01:11:09;;;;;;;39.57;36.07;;;;;;;20.84;nan;98499.63;2096201;28;20486;-72
2021/07/14 01:12:13;;;;;;;40.17;36.17;;;;;;;20.79;nan;98489.16;2088243;28;20457;-72
2021/07/14 01:13:21;;;;;;;39.90;35.67;;;;;;;20.74;nan;98484.84;2096300;28;20539;-72
2021/07/14 01:14:27;;;;;;;39.90;35.83;;;;;;;20.73;nan;98487.94;2096748;28;20525;-72
2021/07/14 01:15:35;;;;;;;42.03;37.60;;;;;;;20.68;nan;98488.31;2097203;28;20471;-72
2021/07/14 01:16:40;;;;;;;40.33;36.53;;;;;;;20.69;nan;98492.56;2097116;28;20459;-72
2021/07/14 01:17:47;;;;;;;42.33;38.20;;;;;;;20.63;nan;98481.28;2096661;28;20448;-72
2021/07/14 01:18:51;;;;;;;40.30;36.50;;;;;;;20.59;nan;98475.84;2097107;28;20459;-72
2021/07/14 01:20:19;;;;;;;40.77;36.57;;;;;;;20.62;nan;98478.97;2095381;28;20989;-72
2021/07/14 01:21:24;;;;;;;40.40;36.70;;;;;;;20.65;nan;98484.41;2093287;28;20452;-72
2021/07/14 01:22:31;;;;;;;41.70;37.10;;;;;;;20.67;nan;98486.72;2096664;28;20487;-72
2021/07/14 01:23:41;;;;;;;41.17;37.17;;;;;;;20.67;nan;98484.78;2096931;28;20456;-72
2021/07/14 01:24:49;;;;;;;42.37;38.40;;;;;;;20.68;nan;98482.88;2095838;28;20460;-72
2021/07/14 01:25:59;;;;;;;39.90;36.00;;;;;;;20.67;nan;98487.50;2096336;28;20441;-72
2021/07/14 01:27:10;;;;;;;42.57;38.43;;;;;;;20.66;nan;98483.25;2096794;28;20465;-72
2021/07/14 01:28:11;;;;;;;42.63;37.47;;;;;;;20.65;nan;98480.91;2096612;28;20893;-72
2021/07/14 01:29:15;;;;;;;39.67;35.50;;;;;;;20.64;nan;98482.84;2096157;28;20507;-72
2021/07/14 01:30:16;;;;;;;41.13;36.90;;;;;;;20.62;nan;98487.88;2096374;28;20218;-72
2021/07/14 01:31:20;;;;;;;40.60;36.20;;;;;;;20.64;nan;98482.84;2097068;28;20444;-72
2021/07/14 01:32:23;;;;;;;41.07;36.93;;;;;;;20.63;nan;98481.28;2096936;28;20221;-72
2021/07/14 01:33:28;;;;;;;40.33;36.57;;;;;;;20.62;nan;98473.53;2096630;28;20849;-72
2021/07/14 01:34:30;;;;;;;40.07;36.23;;;;;;;20.62;nan;98477.03;2096274;28;20479;-72
2021/07/14 01:35:33;;;;;;;40.90;36.63;;;;;;;20.64;nan;98476.66;2096292;28;20448;-72
2021/07/14 01:36:36;;;;;;;41.63;37.63;;;;;;;20.66;nan;98472.41;2096988;28;20543;-72
2021/07/14 01:37:40;;;;;;;38.83;35.20;;;;;;;20.69;nan;98479.03;2096647;28;20440;-72
2021/07/14 01:38:42;;;;;;;40.67;36.73;;;;;;;20.71;nan;98476.69;2097028;28;20811;-72
2021/07/14 01:39:45;;;;;;;39.67;35.87;;;;;;;20.66;nan;98475.09;2096924;28;20457;-72
2021/07/14 01:40:47;;;;;;;40.77;36.60;;;;;;;20.64;nan;98482.84;2096986;28;20973;-72
2021/07/14 01:41:51;;;;;;;40.17;36.40;;;;;;;20.67;nan;98484.78;2096885;28;20487;-72
2021/07/14 01:42:55;;;;;;;41.03;36.93;;;;;;;20.69;nan;98487.16;2096641;28;20460;-72
2021/07/14 01:43:59;;;;;;;40.40;36.37;;;;;;;20.65;nan;98481.69;2096037;28;20460;-72
2021/07/14 01:45:00;;;;;;;39.60;35.53;;;;;;;20.60;nan;98476.63;2095982;28;20520;-72
2021/07/14 01:46:03;;;;;;;41.23;37.17;;;;;;;20.58;nan;98485.13;2096111;28;20460;-72
2021/07/14 01:47:03;;;;;;;41.00;36.90;;;;;;;20.55;nan;98483.16;2088167;28;20470;-72
2021/07/14 01:48:06;;;;;;;42.37;37.77;;;;;;;20.51;nan;98484.31;2087960;28;20473;-71
2021/07/14 01:49:08;;;;;;;39.63;36.00;;;;;;;20.46;nan;98481.94;2096293;28;20254;-72
2021/07/14 01:50:11;;;;;;;40.10;36.20;;;;;;;20.41;nan;98480.31;2095694;28;20476;-71
2021/07/14 01:51:14;;;;;;;40.00;36.23;;;;;;;20.36;nan;98480.69;2096187;28;20460;-72
2021/07/14 01:52:19;;;;;;;41.43;37.17;;;;;;;20.34;nan;98480.28;2096909;28;20502;-72
2021/07/14 01:53:20;;;;;;;40.70;36.90;;;;;;;20.31;nan;98481.78;2095995;28;20482;-71
2021/07/14 01:54:23;;;;;;;40.97;36.83;;;;;;;20.28;nan;98482.53;2096134;28;20484;-72
2021/07/14 01:55:25;;;;;;;40.63;36.63;;;;;;;20.27;nan;98475.56;2096582;28;20970;-72
2021/07/14 01:56:27;;;;;;;39.63;35.67;;;;;;;20.28;nan;98485.25;2096890;28;20440;-73
2021/07/14 01:57:28;;;;;;;40.63;36.90;;;;;;;20.39;nan;98481.84;2096859;28;20444;-72
2021/07/14 01:58:32;;;;;;;40.97;36.77;;;;;;;20.43;nan;98482.66;2096865;28;20450;-72
2021/07/14 01:59:35;;;;;;;40.27;36.47;;;;;;;20.43;nan;98483.47;2096888;28;20939;-71
2021/07/14 02:00:37;;;;;;;40.13;36.20;;;;;;;20.48;nan;98485.81;2095994;28;20460;-71
2021/07/14 02:01:40;;;;;;;44.20;37.63;;;;;;;20.47;nan;98486.19;2087412;28;20506;-72
2021/07/14 02:02:50;;;;;;;40.67;36.53;;;;;;;20.47;nan;98486.19;2096259;28;20468;-72
2021/07/14 02:04:29;;;;;;;40.83;36.97;;;;;;;20.45;nan;98485.81;2096811;28;20523;-71
2021/07/14 02:05:17;;;;;;;39.47;35.63;;;;;;;20.39;nan;98477.19;2096158;28;20919;-72
2021/07/14 02:06:19;;;;;;;40.33;36.30;;;;;;;20.39;nan;98482.63;2096895;28;20464;-71
2021/07/14 02:07:25;;;;;;;39.40;35.80;;;;;;;20.33;nan;98479.50;2096899;28;20433;-71
2021/07/14 02:08:25;;;;;;;39.63;35.77;;;;;;;20.32;nan;98482.56;2095702;28;20855;-71
2021/07/14 02:09:27;;;;;;;39.33;35.60;;;;;;;20.26;nan;98484.84;2096144;28;20540;-71
2021/07/14 02:10:28;;;;;;;39.67;35.97;;;;;;;20.22;nan;98475.91;2096926;28;20241;-71
2021/07/14 02:11:30;;;;;;;39.10;35.30;;;;;;;20.26;nan;98484.06;2096782;28;20525;-71
2021/07/14 02:12:31;;;;;;;39.77;35.87;;;;;;;20.31;nan;98483.72;2096873;28;20467;-71
2021/07/14 02:13:35;;;;;;;40.00;35.87;;;;;;;20.30;nan;98488.34;2096845;28;20454;-72
2021/07/14 02:14:38;;;;;;;40.50;36.57;;;;;;;20.29;nan;98484.09;2096746;28;20245;-71
2021/07/14 02:15:41;;;;;;;40.33;36.13;;;;;;;20.31;nan;98487.19;2096392;28;20453;-71
2021/07/14 02:16:44;;;;;;;38.77;35.07;;;;;;;20.29;nan;98481.38;2095942;28;20898;-71
2021/07/14 02:17:51;;;;;;;39.00;35.37;;;;;;;20.33;nan;98482.22;2096071;28;20444;-72
2021/07/14 02:18:55;;;;;;;37.67;34.07;;;;;;;20.31;nan;98486.44;2095514;28;20551;-71
2021/07/14 02:19:59;;;;;;;40.03;35.73;;;;;;;20.24;nan;98486.34;2095806;28;20481;-71
2021/07/14 02:21:00;;;;;;;39.17;35.33;;;;;;;20.17;nan;98483.63;2096827;28;20965;-72
2021/07/14 02:22:02;;;;;;;40.93;36.93;;;;;;;20.13;nan;98483.56;2096775;28;20801;-71
2021/07/14 02:23:03;;;;;;;41.00;36.63;;;;;;;20.10;nan;98486.25;2096925;28;20233;-71
2021/07/14 02:24:06;;;;;;;39.80;35.87;;;;;;;20.04;nan;98489.28;2096798;28;20452;-71
2021/07/14 02:25:08;;;;;;;41.70;37.07;;;;;;;20.02;nan;98480.00;2096307;28;20448;-72
2021/07/14 02:26:10;;;;;;;41.93;37.23;;;;;;;20.00;nan;98482.28;2096205;28;20455;-72
2021/07/14 02:27:11;;;;;;;41.90;37.30;;;;;;;19.97;nan;98481.09;2096048;28;20461;-71
2021/07/14 02:28:12;;;;;;;40.60;36.50;;;;;;;20.01;nan;98490.03;2096789;28;20531;-71
2021/07/14 02:29:14;;;;;;;40.47;36.53;;;;;;;19.99;nan;98492.34;2096800;28;20229;-71
2021/07/14 02:30:19;;;;;;;40.03;36.23;;;;;;;20.04;nan;98496.63;2096813;28;20999;-72
2021/07/14 02:31:20;;;;;;;42.77;38.37;;;;;;;20.05;nan;98490.06;2096662;28;20447;-72
2021/07/14 02:32:22;;;;;;;42.63;38.20;;;;;;;20.02;nan;98485.41;2096681;28;20507;-72
2021/07/14 02:33:23;;;;;;;41.37;37.13;;;;;;;20.07;nan;98493.19;2096458;28;20587;-72
2021/07/14 02:34:25;;;;;;;47.27;37.90;;;;;;;20.11;nan;98494.00;2096556;28;20468;-72
2021/07/14 02:35:27;;;;;;;41.80;37.83;;;;;;;20.17;nan;98491.75;2096729;28;20264;-72
2021/07/14 02:36:31;;;;;;;43.00;38.67;;;;;;;20.19;nan;98497.56;2096890;28;20494;-72
2021/07/14 02:37:37;;;;;;;40.77;36.57;;;;;;;20.17;nan;98503.34;2096830;28;20440;-72
2021/07/14 02:38:42;;;;;;;41.37;37.33;;;;;;;20.15;nan;98494.78;2096445;28;20556;-72
2021/07/14 02:39:45;;;;;;;42.70;38.60;;;;;;;20.10;nan;98497.88;2096694;28;20986;-72
2021/07/14 02:40:51;;;;;;;42.40;38.17;;;;;;;20.07;nan;98492.41;2096143;28;20444;-72
2021/07/14 02:41:56;;;;;;;41.90;37.47;;;;;;;20.00;nan;98493.91;2095605;28;20456;-72
2021/07/14 02:43:01;;;;;;;42.50;38.33;;;;;;;19.98;nan;98498.13;2095848;28;20440;-72
2021/07/14 02:44:05;;;;;;;41.60;37.27;;;;;;;19.94;nan;98495.38;2088403;28;20457;-71
2021/07/14 02:45:09;;;;;;;42.87;38.80;;;;;;;19.93;nan;98490.34;2096018;28;20460;-72
2021/07/14 02:46:13;;;;;;;43.43;39.23;;;;;;;19.92;nan;98491.50;2096434;28;20448;-71
2021/07/14 02:47:15;;;;;;;43.07;38.90;;;;;;;19.89;nan;98487.59;2096723;28;20449;-72
2021/07/14 02:48:16;;;;;;;42.90;38.57;;;;;;;19.91;nan;98487.25;2096223;28;20472;-73
2021/07/14 02:49:22;;;;;;;42.80;38.30;;;;;;;19.91;nan;98489.94;2095819;28;20444;-74
2021/07/14 02:50:25;;;;;;;42.53;38.50;;;;;;;19.95;nan;98496.16;2096352;28;20464;-73
2021/07/14 02:51:29;;;;;;;44.77;40.07;;;;;;;19.98;nan;98498.91;2096762;28;20505;-73
2021/07/14 02:52:30;;;;;;;43.30;38.97;;;;;;;19.98;nan;98500.81;2096741;28;20544;-73
2021/07/14 02:53:35;;;;;;;44.23;39.67;;;;;;;19.94;nan;98495.38;2096718;28;20455;-73
2021/07/14 02:54:39;;;;;;;43.07;38.97;;;;;;;19.94;nan;98497.31;2096562;28;20262;-73
2021/07/14 02:55:42;;;;;;;44.30;39.77;;;;;;;19.92;nan;98494.22;2095504;28;20973;-71
2021/07/14 02:56:44;;;;;;;42.87;38.53;;;;;;;19.94;nan;98495.38;2087802;28;20449;-74
2021/07/14 02:57:47;;;;;;;42.17;38.03;;;;;;;19.94;nan;98489.19;2096681;28;20513;-73
2021/07/14 02:58:49;;;;;;;44.40;39.80;;;;;;;19.96;nan;98497.72;2098209;28;20843;-73
2021/07/14 02:59:53;;;;;;;43.23;38.63;;;;;;;19.97;nan;98493.84;2097227;28;20460;-73
2021/07/14 03:00:55;;;;;;;41.07;36.90;;;;;;;19.98;nan;98484.56;2089051;28;20454;-74
2021/07/14 03:01:58;;;;;;;41.70;37.30;;;;;;;19.98;nan;98495.41;2097421;28;20926;-73
2021/07/14 03:02:59;;;;;;;42.03;38.00;;;;;;;20.01;nan;98495.47;2098080;28;20484;-73
2021/07/14 03:04:02;;;;;;;40.03;36.03;;;;;;;20.03;nan;98497.78;2098114;28;20509;-73
2021/07/14 03:05:04;;;;;;;42.17;37.73;;;;;;;20.03;nan;98497.78;2097370;28;20468;-73
2021/07/14 03:06:06;;;;;;;41.97;37.40;;;;;;;20.03;nan;98492.38;2097292;28;20444;-73
2021/07/14 03:07:08;;;;;;;40.70;36.70;;;;;;;20.04;nan;98500.13;2097672;28;20854;-73
2021/07/14 03:08:14;;;;;;;42.77;38.10;;;;;;;20.09;nan;98495.53;2098091;28;20806;-73
2021/07/14 03:09:14;;;;;;;41.17;36.77;;;;;;;20.12;nan;98495.56;2098122;28;20448;-73
2021/07/14 03:10:18;;;;;;;41.50;37.13;;;;;;;20.15;nan;98500.22;2098102;28;20447;-72
2021/07/14 03:11:19;;;;;;;43.43;38.67;;;;;;;20.16;nan;98501.03;2097351;28;20313;-73
2021/07/14 03:12:22;;;;;;;41.83;37.63;;;;;;;20.14;nan;98497.88;2097176;28;20471;-73
2021/07/14 03:13:23;;;;;;;41.53;37.00;;;;;;;20.13;nan;98494.41;2097654;28;20222;-73
2021/07/14 03:14:25;;;;;;;42.63;37.33;;;;;;;20.10;nan;98495.16;2097820;28;20475;-73
2021/07/14 03:15:26;;;;;;;41.60;37.30;;;;;;;20.10;nan;98492.44;2097884;28;20468;-73
2021/07/14 03:16:29;;;;;;;42.07;37.77;;;;;;;20.12;nan;98484.72;2097455;28;20448;-73
2021/07/14 03:17:32;;;;;;;39.73;35.83;;;;;;;20.09;nan;98490.91;2097262;28;20309;-73
2021/07/14 03:18:34;;;;;;;42.70;38.03;;;;;;;20.08;nan;98491.28;2097965;28;20455;-73
2021/07/14 03:19:35;;;;;;;41.60;37.60;;;;;;;20.07;nan;98497.81;2098022;28;20527;-73
2021/07/14 03:20:37;;;;;;;41.47;37.43;;;;;;;20.07;nan;98495.09;2097722;28;20475;-73
2021/07/14 03:21:38;;;;;;;40.53;36.23;;;;;;;20.10;nan;98486.25;2096713;28;20865;-73
2021/07/14 03:22:46;;;;;;;42.73;38.23;;;;;;;20.10;nan;98497.09;2088974;28;20450;-73
2021/07/14 03:23:47;;;;;;;42.20;37.77;;;;;;;20.08;nan;98483.16;2097118;28;20464;-73
2021/07/14 03:24:49;;;;;;;40.77;36.57;;;;;;;20.01;nan;98483.84;2097282;28;20865;-73
2021/07/14 03:25:51;;;;;;;40.17;35.93;;;;;;;20.03;nan;98484.25;2097986;28;20878;-73
2021/07/14 03:26:54;;;;;;;40.50;36.47;;;;;;;20.03;nan;98490.44;2097624;28;20461;-76
2021/07/14 03:27:55;;;;;;;41.13;36.73;;;;;;;20.01;nan;98484.63;2097391;28;20457;-73
2021/07/14 03:28:57;;;;;;;41.07;36.83;;;;;;;20.08;nan;98483.94;2097191;28;20452;-72
2021/07/14 03:29:58;;;;;;;38.93;35.20;;;;;;;20.15;nan;98486.66;2097883;28;20464;-71
2021/07/14 03:31:02;;;;;;;42.20;38.00;;;;;;;20.11;nan;98477.75;2097906;28;20440;-71
2021/07/14 03:32:04;;;;;;;41.53;37.13;;;;;;;20.10;nan;98481.63;2097847;28;20744;-71
2021/07/14 03:33:06;;;;;;;41.27;37.07;;;;;;;20.08;nan;98477.72;2097881;28;20440;-72
2021/07/14 03:34:06;;;;;;;42.23;37.83;;;;;;;20.07;nan;98482.38;2097827;28;20459;-71
2021/07/14 03:35:09;;;;;;;42.03;37.80;;;;;;;20.07;nan;98487.78;2097439;28;20929;-72
2021/07/14 03:36:11;;;;;;;42.07;38.07;;;;;;;20.05;nan;98484.66;2097841;28;20241;-71
2021/07/14 03:37:12;;;;;;;42.80;38.40;;;;;;;20.03;nan;98479.59;2097896;28;20556;-72
2021/07/14 03:38:14;;;;;;;43.37;38.93;;;;;;;20.05;nan;98482.72;2097715;28;20445;-72
2021/07/14 03:39:16;;;;;;;43.37;38.77;;;;;;;20.07;nan;98482.38;2096855;28;20491;-73
2021/07/14 03:40:18;;;;;;;44.73;40.00;;;;;;;20.07;nan;98482.38;2097137;28;20527;-72
2021/07/14 03:41:20;;;;;;;43.40;38.40;;;;;;;20.14;nan;98487.81;2097820;28;20441;-72
2021/07/14 03:42:21;;;;;;;40.63;36.17;;;;;;;20.13;nan;98480.84;2097779;28;20459;-72
2021/07/14 03:43:23;;;;;;;43.90;38.37;;;;;;;20.15;nan;98477.78;2097331;28;20480;-73
2021/07/14 03:44:25;;;;;;;44.53;40.17;;;;;;;20.15;nan;98477.78;2097650;28;20441;-73
2021/07/14 03:45:26;;;;;;;45.03;40.57;;;;;;;20.14;nan;98466.16;2097637;28;20484;-72
2021/07/14 03:46:28;;;;;;;44.50;39.77;;;;;;;20.17;nan;98468.13;2096908;28;20563;-72
2021/07/14 03:47:30;;;;;;;44.47;38.77;;;;;;;20.22;nan;98473.19;2097041;28;20449;-72
2021/07/14 03:48:33;;;;;;;46.00;40.77;;;;;;;20.23;nan;98471.25;2097602;28;20452;-72
2021/07/14 03:49:35;;;;;;;44.87;40.27;;;;;;;20.27;nan;98470.16;2096913;28;20464;-72
2021/07/14 03:50:38;;;;;;;45.80;40.83;;;;;;;20.28;nan;98470.94;2096840;28;20559;-72
2021/07/14 03:51:39;;;;;;;43.50;39.00;;;;;;;20.31;nan;98467.47;2096331;28;20547;-72
2021/07/14 03:52:41;;;;;;;50.37;41.00;;;;;;;20.37;nan;98470.63;2096673;28;20991;-73
2021/07/14 03:53:42;;;;;;;42.87;38.70;;;;;;;20.46;nan;98471.09;2097622;28;20884;-72
2021/07/14 03:54:43;;;;;;;43.97;39.73;;;;;;;20.46;nan;98469.16;2096703;28;20445;-72
2021/07/14 03:55:45;;;;;;;42.63;38.43;;;;;;;20.51;nan;98468.81;2088639;28;20223;-72
2021/07/14 03:56:47;;;;;;;44.67;40.03;;;;;;;20.52;nan;98475.03;2096980;28;20448;-73
2021/07/14 03:57:47;;;;;;;43.17;38.80;;;;;;;20.52;nan;98475.03;2097721;28;20461;-73
2021/07/14 03:58:49;;;;;;;43.83;39.13;;;;;;;20.51;nan;98463.41;2097692;28;20440;-73
2021/07/14 03:59:50;;;;;;;43.30;38.63;;;;;;;20.61;nan;98478.19;2097054;28;20739;-72
2021/07/14 04:00:52;;;;;;;44.70;39.67;;;;;;;20.67;nan;98482.09;2096878;28;20809;-73
2021/07/14 04:01:54;;;;;;;41.57;37.27;;;;;;;20.70;nan;98481.34;2097255;28;20218;-73
2021/07/14 04:02:57;;;;;;;42.30;37.97;;;;;;;20.77;nan;98475.19;2097589;28;20444;-72
2021/07/14 04:03:58;;;;;;;42.17;37.67;;;;;;;20.79;nan;98476.38;2097540;28;20441;-72
2021/07/14 04:05:00;;;;;;;41.60;37.60;;;;;;;20.86;nan;98473.69;2097532;28;20444;-72
2021/07/14 04:06:03;;;;;;;39.77;35.67;;;;;;;20.93;nan;98474.88;2097434;28;20473;-72
2021/07/14 04:07:09;;;;;;;43.17;38.57;;;;;;;20.93;nan;98470.22;2097487;28;20452;-72
2021/07/14 04:08:10;;;;;;;43.60;39.07;;;;;;;20.95;nan;98469.88;2096833;28;20487;-72
2021/07/14 04:09:22;;;;;;;44.27;39.50;;;;;;;20.95;nan;98462.53;2097300;28;20460;-72
2021/07/14 04:10:23;;;;;;;41.73;37.30;;;;;;;20.97;nan;98468.34;2096343;28;20309;-72
2021/07/14 04:11:25;;;;;;;42.97;38.63;;;;;;;20.97;nan;98464.84;2088324;28;20461;-73
2021/07/14 04:12:25;;;;;;;42.40;37.90;;;;;;;20.99;nan;98463.31;2088417;28;20687;-72
2021/07/14 04:13:27;;;;;;;42.27;38.10;;;;;;;21.04;nan;98468.38;2088378;28;20483;-72
2021/07/14 04:14:29;;;;;;;45.20;39.07;;;;;;;21.06;nan;98462.56;2096707;28;20268;-73
2021/07/14 04:15:31;;;;;;;43.83;39.00;;;;;;;21.08;nan;98468.38;2097477;28;20449;-72
2021/07/14 04:16:31;;;;;;;45.83;37.27;;;;;;;21.07;nan;98461.41;2097526;28;20478;-73
2021/07/14 04:17:33;;;;;;;44.03;37.13;;;;;;;21.10;nan;98466.84;2097568;28;20923;-72
2021/07/14 04:18:37;;;;;;;41.20;37.13;;;;;;;21.17;nan;98466.09;2096941;28;20680;-72
2021/07/14 04:19:39;;;;;;;44.07;39.43;;;;;;;21.20;nan;98464.56;2096495;28;20477;-73
2021/07/14 04:20:41;;;;;;;48.03;40.50;;;;;;;21.23;nan;98463.81;2097140;28;20465;-73
2021/07/14 04:21:43;;;;;;;46.27;41.33;;;;;;;21.23;nan;98456.44;2097513;28;20849;-73
2021/07/14 04:22:44;;;;;;;47.20;38.03;;;;;;;21.27;nan;98462.69;2097472;28;20858;-73
2021/07/14 04:23:45;;;;;;;42.53;37.33;;;;;;;21.26;nan;98458.38;2097500;28;20449;-73
2021/07/14 04:24:46;;;;;;;42.33;37.67;;;;;;;21.27;nan;98459.97;2097382;28;20727;-73
2021/07/14 04:25:47;;;;;;;43.27;38.70;;;;;;;21.26;nan;98455.66;2096972;28;20810;-72
2021/07/14 04:26:48;;;;;;;45.40;40.80;;;;;;;21.27;nan;98459.97;2088633;28;20226;-72
2021/07/14 04:27:50;;;;;;;44.13;39.53;;;;;;;21.30;nan;98461.94;2096652;28;20456;-72
2021/07/14 04:28:52;;;;;;;44.97;40.13;;;;;;;21.31;nan;98454.56;2097201;28;20467;-72
2021/07/14 04:29:54;;;;;;;55.53;40.43;;;;;;;21.34;nan;98457.28;2096874;28;20540;-73
2021/07/14 04:30:54;;;;;;;79.87;39.53;;;;;;;21.38;nan;98460.03;2096690;28;20523;-73
2021/07/14 04:31:56;;;;;;;49.57;39.07;;;;;;;21.42;nan;98458.88;2096553;28;21016;-72
2021/07/14 04:32:56;;;;;;;48.23;36.80;;;;;;;21.44;nan;98459.25;2096472;28;20230;-72
2021/07/14 04:33:59;;;;;;;53.30;38.57;;;;;;;21.45;nan;98460.81;2088295;28;20456;-72
2021/07/14 04:35:00;;;;;;;45.73;38.27;;;;;;;21.48;nan;98453.84;2088383;28;20318;-73
2021/07/14 04:36:02;;;;;;;44.10;39.27;;;;;;;21.48;nan;98455.78;2088331;28;20456;-72
2021/07/14 04:37:03;;;;;;;43.40;38.50;;;;;;;21.50;nan;98456.19;2096598;28;20281;-72
2021/07/14 04:38:04;;;;;;;43.87;39.60;;;;;;;21.51;nan;98455.03;2097309;28;20448;-72
2021/07/14 04:39:06;;;;;;;43.47;38.93;;;;;;;21.53;nan;98460.84;2097306;28;20455;-72
2021/07/14 04:40:08;;;;;;;44.13;39.57;;;;;;;21.54;nan;98462.38;2097353;28;20767;-72
2021/07/14 04:41:09;;;;;;;44.40;38.80;;;;;;;21.56;nan;98451.94;2096089;28;20503;-72
2021/07/14 04:42:10;;;;;;;42.07;37.97;;;;;;;21.56;nan;98451.94;2088003;28;20476;-73
2021/07/14 04:43:11;;;;;;;44.13;39.40;;;;;;;21.59;nan;98451.16;2096570;28;20301;-73
2021/07/14 04:44:18;;;;;;;43.20;38.90;;;;;;;21.62;nan;98458.53;2097283;28;20460;-72
2021/07/14 04:45:18;;;;;;;44.10;39.70;;;;;;;21.63;nan;98460.09;2097242;28;20226;-72
2021/07/14 04:46:20;;;;;;;45.83;39.50;;;;;;;21.66;nan;98464.75;2097190;28;20527;-72
2021/07/14 04:47:21;;;;;;;43.50;38.80;;;;;;;21.67;nan;98455.44;2096550;28;20245;-72
2021/07/14 04:48:23;;;;;;;42.27;36.97;;;;;;;21.70;nan;98454.69;2096259;28;20464;-74
2021/07/14 04:49:25;;;;;;;43.23;38.90;;;;;;;21.71;nan;98451.56;2096444;28;20626;-72
2021/07/14 04:50:26;;;;;;;42.40;37.83;;;;;;;21.73;nan;98445.78;2096495;28;20962;-73
2021/07/14 04:51:27;;;;;;;45.17;40.37;;;;;;;21.77;nan;98451.97;2097169;28;20524;-72
2021/07/14 04:52:29;;;;;;;46.00;39.03;;;;;;;21.80;nan;98451.19;2097086;28;20453;-72
2021/07/14 04:53:30;;;;;;;52.13;39.53;;;;;;;21.84;nan;98443.06;2097167;28;20242;-73
2021/07/14 04:54:31;;;;;;;50.47;38.80;;;;;;;21.84;nan;98438.41;2097215;28;20440;-72
2021/07/14 04:55:32;;;;;;;42.90;38.23;;;;;;;21.88;nan;98444.63;2097084;28;20704;-73
2021/07/14 04:56:34;;;;;;;45.17;38.93;;;;;;;21.90;nan;98444.25;2096268;28;20780;-72
2021/07/14 04:57:35;;;;;;;43.10;38.30;;;;;;;21.92;nan;98439.22;2096431;28;20691;-72
2021/07/14 04:58:37;;;;;;;43.70;38.87;;;;;;;21.93;nan;98440.75;2097007;28;20779;-72
2021/07/14 04:59:37;;;;;;;42.40;37.47;;;;;;;21.96;nan;98438.03;2096729;28;20245;-73
2021/07/14 05:00:39;;;;;;;42.80;36.57;;;;;;;21.99;nan;98442.72;2097058;28;20445;-73
2021/07/14 05:01:39;;;;;;;41.77;36.93;;;;;;;22.02;nan;98441.94;2096527;28;20683;-73